sensor_id;sensor_type;location;lat;lon;timestamp;pressure;altitude;pressure_sealevel;temperature;humidity
51759;BME280;66684;47.568;18.734;2023-05-03T00:00:40;99791.97;;;12.18;100.00
51759;BME280;66684;47.568;18.734;2023-05-03T00:03:06;99790.13;;;12.14;100.00
51759;BME280;66684;47.568;18.734;2023-05-03T00:05:32;99784.50;;;12.26;100.00
51759;BME280;66684;47.568;18.734;2023-05-03T00:07:58;99786.28;;;12.27;100.00
51759;BME280;66684;47.568;18.734;2023-05-03T00:10:25;99785.47;;;12.29;100.00
51759;BME280;66684;47.568;18.734;2023-05-03T00:12:51;99781.63;;;12.18;100.00
51759;BME280;66684;47.568;18.734;2023-05-03T00:15:17;99779.97;;;12.20;100.00
51759;BME280;66684;47.568;18.734;2023-05-03T00:17:43;99778.31;;;12.22;100.00
51759;BME280;66684;47.568;18.734;2023-05-03T00:20:09;99779.97;;;12.20;100.00
51759;BME280;66684;47.568;18.734;2023-05-03T00:22:36;99781.00;;;12.25;100.00
51759;BME280;66684;47.568;18.734;2023-05-03T00:25:02;99772.53;;;12.29;100.00
51759;BME280;66684;47.568;18.734;2023-05-03T00:27:29;99774.66;;;12.17;100.00
51759;BME280;66684;47.568;18.734;2023-05-03T00:29:55;99766.91;;;12.17;100.00
51759;BME280;66684;47.568;18.734;2023-05-03T00:32:21;99762.00;;;12.25;100.00
51759;BME280;66684;47.568;18.734;2023-05-03T00:34:56;99765.63;;;12.30;100.00
51759;BME280;66684;47.568;18.734;2023-05-03T00:37:23;99770.28;;;12.14;100.00
51759;BME280;66684;47.568;18.734;2023-05-03T00:39:49;99765.75;;;12.09;100.00
51759;BME280;66684;47.568;18.734;2023-05-03T00:42:15;99770.88;;;12.07;100.00
51759;BME280;66684;47.568;18.734;2023-05-03T00:44:41;99768.28;;;12.07;100.00
51759;BME280;66684;47.568;18.734;2023-05-03T00:47:07;99773.28;;;12.03;100.00
51759;BME280;66684;47.568;18.734;2023-05-03T00:49:34;99780.94;;;12.00;100.00
51759;BME280;66684;47.568;18.734;2023-05-03T00:52:00;99778.41;;;12.01;100.00
51759;BME280;66684;47.568;18.734;2023-05-03T00:54:27;99774.66;;;12.17;100.00
51759;BME280;66684;47.568;18.734;2023-05-03T00:56:56;99784.16;;;12.40;100.00
51759;BME280;66684;47.568;18.734;2023-05-03T00:59:22;99782.94;;;12.55;100.00
51759;BME280;66684;47.568;18.734;2023-05-03T01:01:50;99779.72;;;12.62;100.00
51759;BME280;66684;47.568;18.734;2023-05-03T01:04:18;99777.00;;;12.57;100.00
51759;BME280;66684;47.568;18.734;2023-05-03T01:09:38;99790.00;;;12.59;100.00
51759;BME280;66684;47.568;18.734;2023-05-03T01:17:35;99782.03;;;12.78;100.00
51759;BME280;66684;47.568;18.734;2023-05-03T01:20:05;99785.13;;;12.68;100.00
51759;BME280;66684;47.568;18.734;2023-05-03T01:22:44;99777.31;;;12.42;100.00
51759;BME280;66684;47.568;18.734;2023-05-03T01:25:12;99781.31;;;12.33;100.00
51759;BME280;66684;47.568;18.734;2023-05-03T01:27:39;99782.41;;;12.39;100.00
51759;BME280;66684;47.568;18.734;2023-05-03T01:30:07;99781.50;;;12.63;100.00
51759;BME280;66684;47.568;18.734;2023-05-03T01:37:54;99782.91;;;12.29;100.00
51759;BME280;66684;47.568;18.734;2023-05-03T01:40:21;99779.53;;;12.56;100.00
51759;BME280;66684;47.568;18.734;2023-05-03T01:42:49;99781.41;;;12.60;100.00
51759;BME280;66684;47.568;18.734;2023-05-03T01:45:16;99778.53;;;12.76;100.00
51759;BME280;66684;47.568;18.734;2023-05-03T01:47:42;99777.78;;;12.80;100.00
51759;BME280;66684;47.568;18.734;2023-05-03T01:50:09;99769.78;;;12.74;100.00
51759;BME280;66684;47.568;18.734;2023-05-03T01:52:34;99775.72;;;12.70;100.00
51759;BME280;66684;47.568;18.734;2023-05-03T01:55:00;99777.31;;;12.66;100.00
51759;BME280;66684;47.568;18.734;2023-05-03T01:57:26;99776.47;;;12.67;100.00
51759;BME280;66684;47.568;18.734;2023-05-03T01:59:52;99773.00;;;12.67;100.00
51759;BME280;66684;47.568;18.734;2023-05-03T02:02:18;99763.78;;;12.75;100.00
51759;BME280;66684;47.568;18.734;2023-05-03T02:04:44;99769.78;;;12.74;100.00
51759;BME280;66684;47.568;18.734;2023-05-03T02:07:10;99769.38;;;12.62;100.00
51759;BME280;66684;47.568;18.734;2023-05-03T02:09:36;99762.97;;;12.76;100.00
51759;BME280;66684;47.568;18.734;2023-05-03T02:12:02;99764.41;;;12.68;100.00
51759;BME280;66684;47.568;18.734;2023-05-03T02:14:28;99757.03;;;12.80;100.00
51759;BME280;66684;47.568;18.734;2023-05-03T02:16:53;99757.56;;;12.70;100.00
51759;BME280;66684;47.568;18.734;2023-05-03T02:19:20;99766.56;;;12.56;100.00
51759;BME280;66684;47.568;18.734;2023-05-03T02:21:46;99756.19;;;12.81;100.00
51759;BME280;66684;47.568;18.734;2023-05-03T02:24:12;99756.13;;;12.78;100.00
51759;BME280;66684;47.568;18.734;2023-05-03T02:26:38;99764.19;;;12.87;100.00
51759;BME280;66684;47.568;18.734;2023-05-03T02:29:04;99760.94;;;12.93;100.00
51759;BME280;66684;47.568;18.734;2023-05-03T02:31:29;99762.34;;;12.83;100.00
51759;BME280;66684;47.568;18.734;2023-05-03T02:33:55;99759.97;;;12.89;100.00
51759;BME280;66684;47.568;18.734;2023-05-03T02:36:21;99763.97;;;12.81;100.00
51759;BME280;66684;47.568;18.734;2023-05-03T02:38:47;99754.66;;;12.86;100.00
51759;BME280;66684;47.568;18.734;2023-05-03T02:41:13;99763.19;;;12.82;100.00
51759;BME280;66684;47.568;18.734;2023-05-03T02:43:39;99763.28;;;12.85;100.00
51759;BME280;66684;47.568;18.734;2023-05-03T02:46:05;99761.50;;;12.84;100.00
51759;BME280;66684;47.568;18.734;2023-05-03T02:48:31;99753.41;;;12.75;100.00
51759;BME280;66684;47.568;18.734;2023-05-03T02:50:57;99752.38;;;12.70;100.00
51759;BME280;66684;47.568;18.734;2023-05-03T02:53:22;99753.41;;;12.75;100.00
51759;BME280;66684;47.568;18.734;2023-05-03T02:55:49;99750.75;;;12.74;100.00
51759;BME280;66684;47.568;18.734;2023-05-03T02:58:15;99757.03;;;12.55;100.00
51759;BME280;66684;47.568;18.734;2023-05-03T03:00:41;99744.44;;;12.65;100.00
51759;BME280;66684;47.568;18.734;2023-05-03T03:03:07;99749.50;;;12.62;100.00
51759;BME280;66684;47.568;18.734;2023-05-03T03:05:33;99748.87;;;12.44;100.00
51759;BME280;66684;47.568;18.734;2023-05-03T03:07:58;99751.09;;;12.33;100.00
51759;BME280;66684;47.568;18.734;2023-05-03T03:10:24;99754.78;;;12.40;100.00
51759;BME280;66684;47.568;18.734;2023-05-03T03:12:50;99751.03;;;12.32;100.00
51759;BME280;66684;47.568;18.734;2023-05-03T03:15:16;99752.94;;;12.37;100.00
51759;BME280;66684;47.568;18.734;2023-05-03T03:17:42;99745.12;;;12.36;100.00
51759;BME280;66684;47.568;18.734;2023-05-03T03:20:08;99751.34;;;12.17;100.00
51759;BME280;66684;47.568;18.734;2023-05-03T03:22:38;99752.41;;;12.22;100.00
51759;BME280;66684;47.568;18.734;2023-05-03T03:25:05;99747.75;;;12.37;100.00
51759;BME280;66684;47.568;18.734;2023-05-03T03:27:31;99748.78;;;12.41;100.00
51759;BME280;66684;47.568;18.734;2023-05-03T03:29:58;99746.56;;;12.52;100.00
51759;BME280;66684;47.568;18.734;2023-05-03T03:32:24;99753.59;;;12.56;100.00
51759;BME280;66684;47.568;18.734;2023-05-03T03:34:50;99754.38;;;12.53;100.00
51759;BME280;66684;47.568;18.734;2023-05-03T03:37:16;99749.66;;;12.41;100.00
51759;BME280;66684;47.568;18.734;2023-05-03T03:39:42;99748.63;;;12.62;100.00
51759;BME280;66684;47.568;18.734;2023-05-03T03:42:10;99762.22;;;12.55;100.00
51759;BME280;66684;47.568;18.734;2023-05-03T03:44:36;99762.44;;;12.61;100.00
51759;BME280;66684;47.568;18.734;2023-05-03T03:47:02;99761.94;;;12.71;100.00
51759;BME280;66684;47.568;18.734;2023-05-03T03:49:28;99768.75;;;12.69;100.00
51759;BME280;66684;47.568;18.734;2023-05-03T03:51:54;99771.34;;;12.69;100.00
51759;BME280;66684;47.568;18.734;2023-05-03T03:54:20;99778.78;;;12.58;100.00
51759;BME280;66684;47.568;18.734;2023-05-03T03:56:46;99777.44;;;12.46;100.00
51759;BME280;66684;47.568;18.734;2023-05-03T03:59:12;99787.03;;;12.24;100.00
51759;BME280;66684;47.568;18.734;2023-05-03T04:01:38;99775.34;;;12.35;100.00
51759;BME280;66684;47.568;18.734;2023-05-03T04:04:04;99785.50;;;12.53;100.00
51759;BME280;66684;47.568;18.734;2023-05-03T04:06:29;99785.22;;;12.46;100.00
51759;BME280;66684;47.568;18.734;2023-05-03T04:08:57;99782.56;;;12.44;100.00
51759;BME280;66684;47.568;18.734;2023-05-03T04:11:23;99786.06;;;12.45;100.00
51759;BME280;66684;47.568;18.734;2023-05-03T04:13:49;99777.88;;;12.34;100.00
51759;BME280;66684;47.568;18.734;2023-05-03T04:16:15;99789.84;;;12.30;100.00
51759;BME280;66684;47.568;18.734;2023-05-03T04:18:41;99799.38;;;12.31;100.00
51759;BME280;66684;47.568;18.734;2023-05-03T04:21:07;99801.38;;;12.38;100.00
51759;BME280;66684;47.568;18.734;2023-05-03T04:23:33;99798.50;;;12.31;100.00
51759;BME280;66684;47.568;18.734;2023-05-03T04:25:59;99804.19;;;12.21;100.00
51759;BME280;66684;47.568;18.734;2023-05-03T04:28:25;99806.69;;;12.19;100.00
51759;BME280;66684;47.568;18.734;2023-05-03T04:30:52;99816.56;;;12.29;100.00
51759;BME280;66684;47.568;18.734;2023-05-03T04:33:21;99812.94;;;12.24;100.00
51759;BME280;66684;47.568;18.734;2023-05-03T04:35:50;99820.41;;;12.17;100.00
51759;BME280;66684;47.568;18.734;2023-05-03T04:38:16;99817.13;;;12.21;100.00
51759;BME280;66684;47.568;18.734;2023-05-03T04:40:43;99818.75;;;12.19;100.00
51759;BME280;66684;47.568;18.734;2023-05-03T04:43:09;99810.94;;;12.17;100.00
51759;BME280;66684;47.568;18.734;2023-05-03T04:45:36;99825.19;;;12.28;100.00
51759;BME280;66684;47.568;18.734;2023-05-03T04:48:02;99817.50;;;12.31;100.00
51759;BME280;66684;47.568;18.734;2023-05-03T04:50:30;99808.03;;;12.32;100.00
51759;BME280;66684;47.568;18.734;2023-05-03T04:52:57;99817.41;;;12.28;100.00
51759;BME280;66684;47.568;18.734;2023-05-03T04:55:23;99818.25;;;12.27;100.00
51759;BME280;66684;47.568;18.734;2023-05-03T04:57:49;99825.78;;;12.21;100.00
51759;BME280;66684;47.568;18.734;2023-05-03T05:00:15;99829.44;;;12.26;100.00
51759;BME280;66684;47.568;18.734;2023-05-03T05:02:41;99838.00;;;12.25;100.00
51759;BME280;66684;47.568;18.734;2023-05-03T05:05:09;99844.66;;;12.19;100.00
51759;BME280;66684;47.568;18.734;2023-05-03T05:07:35;99855.66;;;12.13;100.00
51759;BME280;66684;47.568;18.734;2023-05-03T05:10:01;99847.19;;;12.17;100.00
51759;BME280;66684;47.568;18.734;2023-05-03T05:12:27;99849.69;;;12.14;100.00
51759;BME280;66684;47.568;18.734;2023-05-03T05:14:54;99853.69;;;12.06;100.00
51759;BME280;66684;47.568;18.734;2023-05-03T05:17:20;99847.38;;;12.22;100.00
51759;BME280;66684;47.568;18.734;2023-05-03T05:19:46;99855.25;;;12.25;100.00
51759;BME280;66684;47.568;18.734;2023-05-03T05:22:12;99859.50;;;12.45;100.00
51759;BME280;66684;47.568;18.734;2023-05-03T05:24:38;99864.22;;;12.57;100.00
51759;BME280;66684;47.568;18.734;2023-05-03T05:27:04;99856.97;;;12.71;100.00
51759;BME280;66684;47.568;18.734;2023-05-03T05:29:31;99859.41;;;12.66;100.00
51759;BME280;66684;47.568;18.734;2023-05-03T05:31:57;99863.03;;;12.71;100.00
51759;BME280;66684;47.568;18.734;2023-05-03T05:34:24;99861.91;;;12.88;100.00
51759;BME280;66684;47.568;18.734;2023-05-03T05:36:50;99862.66;;;12.84;100.00
51759;BME280;66684;47.568;18.734;2023-05-03T05:39:16;99862.81;;;12.89;100.00
51759;BME280;66684;47.568;18.734;2023-05-03T05:41:42;99859.22;;;12.85;100.00
51759;BME280;66684;47.568;18.734;2023-05-03T05:44:08;99868.06;;;12.90;100.00
51759;BME280;66684;47.568;18.734;2023-05-03T05:46:34;99871.84;;;13.00;100.00
51759;BME280;66684;47.568;18.734;2023-05-03T05:49:00;99871.91;;;13.02;100.00
51759;BME280;66684;47.568;18.734;2023-05-03T05:51:26;99875.84;;;13.16;100.00
51759;BME280;66684;47.568;18.734;2023-05-03T05:53:52;99879.59;;;13.22;100.00
51759;BME280;66684;47.568;18.734;2023-05-03T05:56:18;99881.50;;;13.28;100.00
51759;BME280;66684;47.568;18.734;2023-05-03T05:58:44;99883.88;;;13.22;100.00
51759;BME280;66684;47.568;18.734;2023-05-03T06:01:10;99886.31;;;13.19;100.00
51759;BME280;66684;47.568;18.734;2023-05-03T06:03:36;99886.31;;;13.19;100.00
51759;BME280;66684;47.568;18.734;2023-05-03T06:06:02;99886.53;;;13.00;100.00
51759;BME280;66684;47.568;18.734;2023-05-03T06:08:28;99887.78;;;13.11;100.00
51759;BME280;66684;47.568;18.734;2023-05-03T06:10:54;99896.34;;;13.08;100.00
51759;BME280;66684;47.568;18.734;2023-05-03T06:13:21;99892.09;;;12.86;100.00
51759;BME280;66684;47.568;18.734;2023-05-03T06:15:47;99889.28;;;13.04;100.00
51759;BME280;66684;47.568;18.734;2023-05-03T06:18:12;99899.88;;;12.86;100.00
51759;BME280;66684;47.568;18.734;2023-05-03T06:20:38;99894.09;;;12.93;100.00
51759;BME280;66684;47.568;18.734;2023-05-03T06:23:04;99897.62;;;12.95;100.00
51759;BME280;66684;47.568;18.734;2023-05-03T06:25:30;99896.75;;;12.95;100.00
51759;BME280;66684;47.568;18.734;2023-05-03T06:27:56;99896.63;;;13.16;100.00
51759;BME280;66684;47.568;18.734;2023-05-03T06:30:22;99894.22;;;13.20;100.00
51759;BME280;66684;47.568;18.734;2023-05-03T06:32:50;99896.06;;;13.25;100.00
51759;BME280;66684;47.568;18.734;2023-05-03T06:35:16;99899.09;;;13.13;100.00
51759;BME280;66684;47.568;18.734;2023-05-03T06:37:44;99899.66;;;13.28;100.00
51759;BME280;66684;47.568;18.734;2023-05-03T06:40:10;99899.66;;;13.28;100.00
51759;BME280;66684;47.568;18.734;2023-05-03T06:42:36;99902.44;;;13.33;100.00
51759;BME280;66684;47.568;18.734;2023-05-03T06:45:02;99908.22;;;13.02;100.00
51759;BME280;66684;47.568;18.734;2023-05-03T06:47:28;99905.06;;;13.10;100.00
51759;BME280;66684;47.568;18.734;2023-05-03T06:49:54;99905.78;;;13.06;100.00
51759;BME280;66684;47.568;18.734;2023-05-03T06:52:20;99905.72;;;13.05;100.00
51759;BME280;66684;47.568;18.734;2023-05-03T06:54:46;99911.56;;;12.75;100.00
51759;BME280;66684;47.568;18.734;2023-05-03T06:57:12;99916.28;;;12.85;100.00
51759;BME280;66684;47.568;18.734;2023-05-03T06:59:37;99915.06;;;13.00;100.00
51759;BME280;66684;47.568;18.734;2023-05-03T07:02:03;99917.31;;;13.14;100.00
51759;BME280;66684;47.568;18.734;2023-05-03T07:04:29;99918.91;;;13.11;100.00
51759;BME280;66684;47.568;18.734;2023-05-03T07:06:55;99916.53;;;13.17;100.00
51759;BME280;66684;47.568;18.734;2023-05-03T07:09:21;99922.69;;;13.44;100.00
51759;BME280;66684;47.568;18.734;2023-05-03T07:11:47;99923.66;;;13.46;100.00
51759;BME280;66684;47.568;18.734;2023-05-03T07:14:15;99937.97;;;13.61;100.00
51759;BME280;66684;47.568;18.734;2023-05-03T07:16:41;99931.00;;;13.85;100.00
51759;BME280;66684;47.568;18.734;2023-05-03T07:19:07;99928.56;;;13.90;100.00
51759;BME280;66684;47.568;18.734;2023-05-03T07:21:33;99935.16;;;14.07;100.00
51759;BME280;66684;47.568;18.734;2023-05-03T07:23:59;99942.47;;;14.19;100.00
51759;BME280;66684;47.568;18.734;2023-05-03T07:26:26;99939.22;;;14.26;100.00
51759;BME280;66684;47.568;18.734;2023-05-03T07:28:52;99933.22;;;14.55;100.00
51759;BME280;66684;47.568;18.734;2023-05-03T07:31:20;99941.31;;;14.65;100.00
51759;BME280;66684;47.568;18.734;2023-05-03T07:33:47;99938.94;;;14.45;100.00
51759;BME280;66684;47.568;18.734;2023-05-03T07:36:13;99935.16;;;14.63;100.00
51759;BME280;66684;47.568;18.734;2023-05-03T07:38:39;99941.03;;;14.84;100.00
51759;BME280;66684;47.568;18.734;2023-05-03T07:41:05;99942.41;;;14.73;100.00
51759;BME280;66684;47.568;18.734;2023-05-03T07:43:31;99945.94;;;14.75;100.00
51759;BME280;66684;47.568;18.734;2023-05-03T07:45:57;99951.78;;;14.96;100.00
51759;BME280;66684;47.568;18.734;2023-05-03T07:48:23;99952.19;;;14.81;100.00
51759;BME280;66684;47.568;18.734;2023-05-03T07:50:49;99953.53;;;14.97;100.00
51759;BME280;66684;47.568;18.734;2023-05-03T07:53:15;99951.50;;;14.87;100.00
51759;BME280;66684;47.568;18.734;2023-05-03T07:55:41;99959.41;;;14.62;100.00
51759;BME280;66684;47.568;18.734;2023-05-03T07:58:07;99960.72;;;14.47;100.00
51759;BME280;66684;47.568;18.734;2023-05-03T08:00:33;99958.75;;;14.69;100.00
51759;BME280;66684;47.568;18.734;2023-05-03T08:02:59;99958.66;;;14.96;100.00
51759;BME280;66684;47.568;18.734;2023-05-03T08:05:26;99955.94;;;14.90;100.00
51759;BME280;66684;47.568;18.734;2023-05-03T08:07:52;99956.13;;;14.97;100.00
51759;BME280;66684;47.568;18.734;2023-05-03T08:10:18;99952.94;;;15.07;100.00
51759;BME280;66684;47.568;18.734;2023-05-03T08:12:44;99955.63;;;15.10;100.00
51759;BME280;66684;47.568;18.734;2023-05-03T08:15:10;99956.00;;;14.93;100.00
51759;BME280;66684;47.568;18.734;2023-05-03T08:17:41;99958.22;;;14.79;100.00
51759;BME280;66684;47.568;18.734;2023-05-03T08:20:08;99958.56;;;14.91;100.00
51759;BME280;66684;47.568;18.734;2023-05-03T08:22:34;99959.75;;;15.02;100.00
51759;BME280;66684;47.568;18.734;2023-05-03T08:25:03;99956.16;;;14.99;100.00
51759;BME280;66684;47.568;18.734;2023-05-03T08:27:30;99953.44;;;15.26;100.00
51759;BME280;66684;47.568;18.734;2023-05-03T08:29:56;99952.41;;;14.89;100.00
51759;BME280;66684;47.568;18.734;2023-05-03T08:32:22;99953.78;;;15.06;100.00
51759;BME280;66684;47.568;18.734;2023-05-03T08:34:51;99962.91;;;15.22;100.00
51759;BME280;66684;47.568;18.734;2023-05-03T08:37:17;99955.47;;;15.04;100.00
51759;BME280;66684;47.568;18.734;2023-05-03T08:39:43;99957.44;;;15.13;100.00
51759;BME280;66684;47.568;18.734;2023-05-03T08:42:09;99943.88;;;15.25;100.00
51759;BME280;66684;47.568;18.734;2023-05-03T08:44:36;99958.06;;;15.36;100.00
51759;BME280;66684;47.568;18.734;2023-05-03T08:47:03;99954.41;;;15.28;100.00
51759;BME280;66684;47.568;18.734;2023-05-03T08:49:31;99955.69;;;15.45;100.00
51759;BME280;66684;47.568;18.734;2023-05-03T08:51:59;99960.38;;;15.58;100.00
51759;BME280;66684;47.568;18.734;2023-05-03T08:54:26;99965.94;;;15.71;100.00
51759;BME280;66684;47.568;18.734;2023-05-03T08:56:52;99962.19;;;15.93;100.00
51759;BME280;66684;47.568;18.734;2023-05-03T08:59:18;99972.94;;;15.72;100.00
51759;BME280;66684;47.568;18.734;2023-05-03T09:01:44;99973.16;;;15.81;100.00
51759;BME280;66684;47.568;18.734;2023-05-03T09:04:10;99975.22;;;15.61;100.00
51759;BME280;66684;47.568;18.734;2023-05-03T09:06:37;99979.81;;;15.70;100.00
51759;BME280;66684;47.568;18.734;2023-05-03T09:09:04;99972.75;;;15.99;100.00
51759;BME280;66684;47.568;18.734;2023-05-03T09:11:33;99972.97;;;16.08;100.00
51759;BME280;66684;47.568;18.734;2023-05-03T09:14:14;99977.84;;;15.94;100.00
51759;BME280;66684;47.568;18.734;2023-05-03T09:16:42;99977.87;;;16.32;100.00
51759;BME280;66684;47.568;18.734;2023-05-03T09:19:12;99980.19;;;16.19;100.00
51759;BME280;66684;47.568;18.734;2023-05-03T09:21:41;99972.66;;;16.32;100.00
51759;BME280;66684;47.568;18.734;2023-05-03T09:26:40;99971.47;;;16.17;100.00
51759;BME280;66684;47.568;18.734;2023-05-03T09:29:07;99973.53;;;15.96;100.00
51759;BME280;66684;47.568;18.734;2023-05-03T09:31:34;99969.06;;;16.27;100.00
51759;BME280;66684;47.568;18.734;2023-05-03T09:34:01;99972.41;;;16.59;100.00
51759;BME280;66684;47.568;18.734;2023-05-03T09:36:44;99967.91;;;16.52;100.00
51759;BME280;66684;47.568;18.734;2023-05-03T09:39:17;99974.28;;;16.64;100.00
51759;BME280;66684;47.568;18.734;2023-05-03T09:41:44;99975.97;;;16.61;100.00
51759;BME280;66684;47.568;18.734;2023-05-03T09:44:10;99987.41;;;16.67;100.00
51759;BME280;66684;47.568;18.734;2023-05-03T09:46:37;99980.91;;;16.49;100.00
51759;BME280;66684;47.568;18.734;2023-05-03T09:49:02;99978.16;;;16.44;100.00
51759;BME280;66684;47.568;18.734;2023-05-03T09:51:30;99975.00;;;16.57;100.00
51759;BME280;66684;47.568;18.734;2023-05-03T09:53:59;99980.16;;;16.54;100.00
51759;BME280;66684;47.568;18.734;2023-05-03T09:56:25;99982.09;;;16.64;100.00
51759;BME280;66684;47.568;18.734;2023-05-03T09:58:52;99978.94;;;16.78;100.00
51759;BME280;66684;47.568;18.734;2023-05-03T10:01:19;99980.22;;;16.57;100.00
51759;BME280;66684;47.568;18.734;2023-05-03T10:03:49;99981.91;;;16.55;100.00
51759;BME280;66684;47.568;18.734;2023-05-03T10:06:23;99976.31;;;16.40;100.00
51759;BME280;66684;47.568;18.734;2023-05-03T10:12:01;99976.41;;;16.43;100.00
51759;BME280;66684;47.568;18.734;2023-05-03T10:14:29;99976.59;;;16.52;100.00
51759;BME280;66684;47.568;18.734;2023-05-03T10:17:06;99969.72;;;16.54;100.00
51759;BME280;66684;47.568;18.734;2023-05-03T10:22:09;99966.38;;;16.60;100.00
51759;BME280;66684;47.568;18.734;2023-05-03T10:24:37;99959.06;;;16.45;100.00
51759;BME280;66684;47.568;18.734;2023-05-03T10:27:31;99965.00;;;16.76;100.00
51759;BME280;66684;47.568;18.734;2023-05-03T10:30:01;99959.19;;;16.90;100.00
51759;BME280;66684;47.568;18.734;2023-05-03T10:32:37;99969.13;;;17.07;100.00
51759;BME280;66684;47.568;18.734;2023-05-03T10:35:14;99960.94;;;16.90;100.00
51759;BME280;66684;47.568;18.734;2023-05-03T10:37:42;99963.75;;;16.99;100.00
51759;BME280;66684;47.568;18.734;2023-05-03T10:42:43;99963.66;;;16.96;100.00
51759;BME280;66684;47.568;18.734;2023-05-03T10:45:25;99961.09;;;16.58;100.00
51759;BME280;66684;47.568;18.734;2023-05-03T10:50:40;99959.84;;;16.79;100.00
51759;BME280;66684;47.568;18.734;2023-05-03T10:53:07;99956.37;;;16.80;100.00
51759;BME280;66684;47.568;18.734;2023-05-03T10:55:34;99960.41;;;17.06;100.00
51759;BME280;66684;47.568;18.734;2023-05-03T10:58:00;99955.59;;;17.27;100.00
51759;BME280;66684;47.568;18.734;2023-05-03T11:05:29;99952.72;;;16.34;100.00
51759;BME280;66684;47.568;18.734;2023-05-03T11:08:08;99957.19;;;16.77;100.00
51759;BME280;66684;47.568;18.734;2023-05-03T11:10:34;99947.00;;;16.89;100.00
51759;BME280;66684;47.568;18.734;2023-05-03T11:13:00;99961.88;;;16.92;100.00
51759;BME280;66684;47.568;18.734;2023-05-03T11:15:26;99957.63;;;16.59;100.00
51759;BME280;66684;47.568;18.734;2023-05-03T11:17:52;99959.28;;;16.54;100.00
51759;BME280;66684;47.568;18.734;2023-05-03T11:20:18;99955.03;;;16.59;100.00
51759;BME280;66684;47.568;18.734;2023-05-03T11:22:44;99955.09;;;16.62;100.00
51759;BME280;66684;47.568;18.734;2023-05-03T11:25:11;99952.09;;;16.44;100.00
51759;BME280;66684;47.568;18.734;2023-05-03T11:27:40;99955.87;;;16.58;100.00
51759;BME280;66684;47.568;18.734;2023-05-03T11:30:07;99958.91;;;16.77;100.00
51759;BME280;66684;47.568;18.734;2023-05-03T11:32:33;99960.12;;;16.53;100.00
51759;BME280;66684;47.568;18.734;2023-05-03T11:35:02;99955.47;;;16.40;100.00
51759;BME280;66684;47.568;18.734;2023-05-03T11:37:30;99958.59;;;16.24;100.00
51759;BME280;66684;47.568;18.734;2023-05-03T11:39:57;99955.50;;;16.04;100.00
51759;BME280;66684;47.568;18.734;2023-05-03T11:42:23;99960.41;;;16.28;100.00
51759;BME280;66684;47.568;18.734;2023-05-03T11:44:51;99962.94;;;16.25;100.00
51759;BME280;66684;47.568;18.734;2023-05-03T11:47:17;99956.75;;;16.19;100.00
51759;BME280;66684;47.568;18.734;2023-05-03T11:49:54;99951.31;;;16.10;100.00
51759;BME280;66684;47.568;18.734;2023-05-03T11:52:24;99951.16;;;16.04;100.00
51759;BME280;66684;47.568;18.734;2023-05-03T11:54:50;99954.38;;;15.94;100.00
51759;BME280;66684;47.568;18.734;2023-05-03T11:57:16;99947.19;;;15.84;100.00
51759;BME280;66684;47.568;18.734;2023-05-03T11:59:43;99952.84;;;16.02;100.00
51759;BME280;66684;47.568;18.734;2023-05-03T12:02:11;99962.97;;;16.26;100.00
51759;BME280;66684;47.568;18.734;2023-05-03T12:04:39;99947.53;;;15.98;100.00
51759;BME280;66684;47.568;18.734;2023-05-03T12:07:09;99957.38;;;15.75;100.00
51759;BME280;66684;47.568;18.734;2023-05-03T12:09:36;99958.91;;;15.67;100.00
51759;BME280;66684;47.568;18.734;2023-05-03T12:12:02;99962.37;;;15.66;100.00
51759;BME280;66684;47.568;18.734;2023-05-03T12:14:58;99949.00;;;15.86;100.00
51759;BME280;66684;47.568;18.734;2023-05-03T12:17:38;99950.06;;;15.61;100.00
51759;BME280;66684;47.568;18.734;2023-05-03T12:20:21;99952.38;;;15.84;100.00
51759;BME280;66684;47.568;18.734;2023-05-03T12:22:48;99949.09;;;15.58;100.00
51759;BME280;66684;47.568;18.734;2023-05-03T12:25:14;99945.38;;;15.48;100.00
51759;BME280;66684;47.568;18.734;2023-05-03T12:27:40;99944.53;;;15.49;100.00
51759;BME280;66684;47.568;18.734;2023-05-03T12:30:07;99936.47;;;15.72;100.00
51759;BME280;66684;47.568;18.734;2023-05-03T12:32:37;99943.09;;;15.60;100.00
51759;BME280;66684;47.568;18.734;2023-05-03T12:35:06;99951.84;;;15.31;100.00
51759;BME280;66684;47.568;18.734;2023-05-03T12:37:36;99936.03;;;15.23;100.00
51759;BME280;66684;47.568;18.734;2023-05-03T12:40:02;99934.28;;;15.22;100.00
51759;BME280;66684;47.568;18.734;2023-05-03T12:42:29;99930.81;;;15.23;100.00
51759;BME280;66684;47.568;18.734;2023-05-03T12:44:58;99939.19;;;15.11;100.00
51759;BME280;66684;47.568;18.734;2023-05-03T12:47:24;99931.56;;;15.19;100.00
51759;BME280;66684;47.568;18.734;2023-05-03T12:49:52;99921.94;;;15.15;100.00
51759;BME280;66684;47.568;18.734;2023-05-03T12:52:19;99920.97;;;15.11;100.00
51759;BME280;66684;47.568;18.734;2023-05-03T12:54:47;99922.66;;;15.09;100.00
51759;BME280;66684;47.568;18.734;2023-05-03T12:57:12;99908.63;;;15.04;100.00
51759;BME280;66684;47.568;18.734;2023-05-03T12:59:39;99908.63;;;15.04;100.00
51759;BME280;66684;47.568;18.734;2023-05-03T13:02:08;99912.66;;;14.93;100.00
51759;BME280;66684;47.568;18.734;2023-05-03T13:04:34;99912.69;;;14.95;100.00
51759;BME280;66684;47.568;18.734;2023-05-03T13:07:00;99907.59;;;14.99;100.00
51759;BME280;66684;47.568;18.734;2023-05-03T13:09:26;99894.34;;;14.90;100.00
51759;BME280;66684;47.568;18.734;2023-05-03T13:11:52;99913.03;;;14.77;100.00